createdAt,value
2022-12-13T07:41:26.904Z,37.1
2022-12-13T07:44:28.705Z,40.1
2022-12-13T07:48:50.521Z,38.8
2022-12-13T07:51:52.513Z,39.8
2022-12-13T07:54:54.465Z,38
2022-12-13T07:57:56.433Z,42.7
2022-12-13T08:00:58.409Z,45.5
2022-12-13T08:04:00.354Z,43.6
2022-12-13T08:07:02.333Z,40.2
2022-12-13T08:10:04.377Z,49.7
2022-12-13T08:13:06.261Z,41.8
2022-12-13T08:16:27.019Z,41.2
2022-12-13T08:19:10.192Z,44.7
2022-12-13T08:22:14.070Z,44.5
2022-12-13T08:25:14.119Z,41.2
2022-12-13T08:28:16.075Z,38.5
2022-12-13T08:31:18.043Z,41.2
2022-12-13T08:34:19.997Z,44.8
2022-12-13T08:37:21.976Z,37.7
2022-12-13T08:40:23.945Z,41.2
2022-12-13T08:43:26.000Z,44.4
2022-12-13T08:46:27.919Z,41.8
2022-12-13T08:49:29.805Z,38.5
2022-12-13T08:52:31.876Z,43.6
2022-12-13T08:55:33.733Z,44.5
2022-12-13T08:58:35.682Z,50.5
2022-12-13T09:01:37.693Z,45.5
2022-12-13T09:04:39.606Z,51.5
2022-12-13T09:07:41.573Z,50.8
2022-12-13T09:10:43.538Z,51.6
2022-12-13T09:13:45.492Z,44.8
2022-12-13T09:16:50.500Z,45.2
2022-12-13T09:19:49.461Z,42.6
2022-12-13T09:22:51.414Z,41.6
2022-12-13T09:25:53.367Z,44.6
2022-12-13T09:28:55.326Z,36.8
2022-12-13T09:31:57.353Z,31.4
2022-12-13T09:34:59.260Z,38.7
2022-12-13T09:38:01.219Z,37.8
2022-12-13T09:41:03.159Z,42.8
2022-12-13T09:44:05.123Z,40.8
2022-12-13T09:47:13.240Z,47.1
2022-12-13T09:50:14.899Z,40
2022-12-13T09:53:11.824Z,40.1
2022-12-13T09:56:12.964Z,40.1
2022-12-13T09:59:14.928Z,42.3
2022-12-13T10:02:16.919Z,39.8
2022-12-13T10:05:22.047Z,39.8
2022-12-13T10:08:20.800Z,44.1
2022-12-13T10:11:22.760Z,39.9
2022-12-13T10:14:24.744Z,42.1
2022-12-13T10:17:26.795Z,35.6
2022-12-13T10:20:28.902Z,35.2
2022-12-13T10:23:52.840Z,30.3
2022-12-13T10:26:32.911Z,34.6
2022-12-13T10:29:34.841Z,32.1
2022-12-13T10:32:37.152Z,35.2
2022-12-13T10:35:38.894Z,32.9
2022-12-13T10:38:41.537Z,34.5
2022-12-13T10:41:43.338Z,36.1
2022-12-13T10:44:45.293Z,35.9
2022-12-13T10:47:47.295Z,32.5
2022-12-13T10:50:49.279Z,37.4
2022-12-13T10:53:51.321Z,29.4
2022-12-13T10:56:53.381Z,34.4
2022-12-13T10:59:55.428Z,34.9
2022-12-13T11:02:57.394Z,34.8
2022-12-13T11:05:59.286Z,33.6
2022-12-13T11:09:01.456Z,30.6
2022-12-13T11:12:03.275Z,27.5
2022-12-13T11:15:05.220Z,26.7
2022-12-13T11:18:07.181Z,29.6
2022-12-13T11:21:09.221Z,27.8
2022-12-13T11:24:11.169Z,23.6
2022-12-13T11:27:13.117Z,34.3
2022-12-13T11:30:15.180Z,36.4
2022-12-13T11:33:17.067Z,41.5
2022-12-13T11:36:19.019Z,30
2022-12-13T11:39:20.966Z,31.7
2022-12-13T11:42:22.930Z,35.1
2022-12-13T11:45:24.893Z,29.7
2022-12-13T11:48:27.204Z,35
2022-12-13T11:51:28.842Z,32.4
2022-12-13T11:54:30.790Z,30.6
2022-12-13T11:57:32.742Z,38.2
2022-12-13T12:00:35.158Z,32.8
2022-12-13T12:03:36.825Z,34.1
2022-12-13T12:06:38.619Z,33.6
2022-12-13T12:09:40.579Z,31.4
2022-12-13T12:12:42.538Z,32
2022-12-13T12:15:44.570Z,32.2
2022-12-13T12:18:46.463Z,30.6
2022-12-13T12:22:13.076Z,34
2022-12-13T12:24:50.399Z,30.5
2022-12-13T12:27:52.369Z,30.6
2022-12-13T12:30:54.350Z,30.1
2022-12-13T12:33:56.284Z,26.1
2022-12-13T12:36:58.347Z,28.7
2022-12-13T12:40:00.280Z,28.4
2022-12-13T12:43:15.235Z,28.5
2022-12-13T12:46:04.289Z,28.2
2022-12-13T12:49:06.548Z,32.2
2022-12-13T12:52:08.139Z,25.9
2022-12-13T12:55:10.087Z,24.9
2022-12-13T12:58:12.072Z,25.9
2022-12-13T13:01:14.158Z,27.4
2022-12-13T13:04:22.376Z,26.9
2022-12-13T13:07:22.259Z,24.3
2022-12-13T13:10:26.000Z,28.5
2022-12-13T13:13:32.674Z,33.5
2022-12-13T13:16:23.862Z,29.3
2022-12-13T13:19:26.076Z,31.5
2022-12-13T13:22:30.998Z,24.2
2022-12-13T13:25:29.813Z,32.4
2022-12-13T13:28:31.766Z,23.1
2022-12-13T13:31:33.841Z,27.6
2022-12-13T13:34:35.800Z,25.9
2022-12-13T13:37:37.872Z,33.9
2022-12-13T13:40:39.840Z,24.4
2022-12-13T13:43:41.828Z,32.9
2022-12-13T13:46:43.804Z,28.5
2022-12-13T13:49:45.732Z,26.5
2022-12-13T13:52:47.685Z,36.6
2022-12-13T13:55:49.661Z,33.1
2022-12-13T13:58:51.630Z,29.7
2022-12-13T14:01:56.929Z,31
2022-12-13T14:04:55.558Z,32
2022-12-13T14:07:57.530Z,27.9
2022-12-13T14:10:59.551Z,31.4
2022-12-13T14:14:01.508Z,37.3
2022-12-13T14:17:03.459Z,32.7
2022-12-13T14:20:05.475Z,35.5
2022-12-13T14:23:07.388Z,34.7
2022-12-13T14:26:09.343Z,31
2022-12-13T14:29:11.326Z,36
2022-12-13T14:32:25.928Z,40.2
2022-12-13T14:35:25.092Z,37.9
2022-12-13T14:38:17.190Z,35.2
2022-12-13T14:41:19.140Z,32.8
2022-12-13T14:44:21.106Z,31.3
2022-12-13T14:47:23.079Z,36.3
2022-12-13T14:50:25.032Z,38
2022-12-13T14:53:27.522Z,37.3
2022-12-13T14:56:29.310Z,39
2022-12-13T14:59:30.901Z,29.6
2022-12-13T15:02:32.886Z,32.3
2022-12-13T15:05:34.833Z,35
2022-12-13T15:08:36.912Z,33.7
2022-12-13T15:11:38.741Z,33.5
2022-12-13T15:14:40.723Z,34.5
2022-12-13T15:17:42.662Z,34.3
2022-12-13T15:20:44.620Z,32.8
2022-12-13T15:23:48.691Z,38
2022-12-13T15:26:48.535Z,35.1
2022-12-13T15:29:50.506Z,35.6
2022-12-13T15:32:52.468Z,35.8
2022-12-13T15:35:54.431Z,29.7
2022-12-13T15:38:56.390Z,34
2022-12-13T15:41:58.360Z,35.2
2022-12-13T15:45:00.325Z,31.6
2022-12-13T15:48:02.269Z,33.5
2022-12-13T15:51:04.228Z,40.1
2022-12-13T15:54:06.214Z,31.2
2022-12-13T15:57:08.152Z,30.5
2022-12-13T16:00:10.238Z,36.5
2022-12-13T16:03:12.182Z,37
2022-12-13T16:06:14.032Z,31.3
2022-12-13T16:09:15.992Z,28.5
2022-12-13T16:12:17.968Z,30.9
2022-12-13T16:15:20.347Z,27.5
2022-12-13T16:18:26.331Z,29.3
2022-12-13T16:21:23.826Z,26.6
2022-12-13T16:24:25.780Z,23.7
2022-12-13T16:27:27.737Z,25.6
2022-12-13T16:30:29.691Z,29.4
2022-12-13T16:33:31.927Z,32.2
2022-12-13T16:36:33.614Z,31.3
2022-12-13T16:39:35.624Z,29.2
2022-12-13T16:42:37.546Z,26.7
2022-12-13T16:45:42.149Z,29.7
2022-12-13T16:48:41.463Z,28.4
2022-12-13T16:51:47.995Z,24.7
2022-12-13T16:54:45.388Z,31.6
2022-12-13T16:57:47.338Z,28.4
2022-12-13T17:00:49.308Z,26.5
2022-12-13T17:03:51.252Z,24.8
2022-12-13T17:06:54.720Z,21.3
2022-12-13T17:09:55.177Z,23.8
2022-12-13T17:12:57.128Z,22
2022-12-13T17:15:59.880Z,16.7
2022-12-13T17:19:01.046Z,16.8
2022-12-13T17:22:03.009Z,20
2022-12-13T17:25:04.975Z,18.1
2022-12-13T17:28:06.937Z,19.5
2022-12-13T17:31:08.975Z,17.1
2022-12-13T17:34:10.847Z,21.6
2022-12-13T17:37:12.813Z,21.2
2022-12-13T17:40:14.745Z,19.6
2022-12-13T17:43:29.008Z,16.7
2022-12-13T17:46:18.716Z,20.1
2022-12-13T17:49:20.643Z,19.3
2022-12-13T17:52:22.600Z,20.3
2022-12-13T17:55:24.570Z,19.7
2022-12-13T17:58:26.972Z,17.7
2022-12-13T18:01:28.508Z,20.6
2022-12-13T18:04:30.448Z,15.8
2022-12-13T18:07:32.401Z,19.2
2022-12-13T18:10:34.366Z,16
2022-12-13T18:13:36.333Z,18.9
2022-12-13T18:16:39.222Z,22.2
2022-12-13T18:19:40.251Z,20
2022-12-13T18:22:44.790Z,17.9
2022-12-13T18:25:44.190Z,16.6
2022-12-13T18:28:46.121Z,21.9
2022-12-13T18:31:48.079Z,22
2022-12-13T18:34:50.044Z,18.9
2022-12-13T18:37:52.004Z,17.8
2022-12-13T18:40:53.959Z,25.4
2022-12-13T18:43:55.911Z,23.5
2022-12-13T18:46:57.960Z,23.2
2022-12-13T18:49:59.833Z,27.7
2022-12-13T18:53:01.793Z,26.7
2022-12-13T18:56:03.746Z,25.2
2022-12-13T18:59:05.699Z,27.2
2022-12-13T19:02:07.667Z,22.7
2022-12-13T19:05:09.673Z,27.8
2022-12-13T19:08:11.596Z,25.8
2022-12-13T19:11:13.568Z,27.7
2022-12-13T19:14:15.520Z,25.7
2022-12-13T19:17:17.482Z,27.7
2022-12-13T19:20:19.492Z,33.4
2022-12-13T19:23:21.452Z,30.2
2022-12-13T19:26:23.415Z,32.9
2022-12-13T19:29:25.376Z,31.3
2022-12-13T19:32:30.541Z,31.2
2022-12-13T19:35:32.506Z,31.3
2022-12-13T19:38:34.445Z,29.3
2022-12-13T19:41:36.900Z,25.9
2022-12-13T19:44:38.953Z,33.8
2022-12-13T19:47:41.043Z,30.1
2022-12-13T19:50:43.012Z,33
2022-12-13T19:53:44.980Z,29.8
2022-12-13T19:56:46.953Z,27.8
2022-12-13T19:59:49.079Z,29.9
2022-12-13T20:02:51.106Z,26.8
2022-12-13T20:05:53.238Z,31
2022-12-13T20:08:55.110Z,26.1
2022-12-13T20:11:57.058Z,31.7
2022-12-13T20:14:59.029Z,26.1
2022-12-13T20:18:01.008Z,35.3
2022-12-13T20:21:11.453Z,34.6
2022-12-13T20:24:04.942Z,31.3
2022-12-13T20:27:06.888Z,39.9
2022-12-13T20:30:08.865Z,35.9
2022-12-13T20:33:10.848Z,39.4
2022-12-13T20:36:24.536Z,37.7
2022-12-13T20:39:14.754Z,29.5
2022-12-13T20:42:16.723Z,35.3
2022-12-13T20:45:18.680Z,35.3
2022-12-13T20:48:20.627Z,38
2022-12-13T20:51:22.583Z,37.9
2022-12-13T20:54:24.542Z,33.9
2022-12-13T20:57:26.496Z,40
2022-12-13T21:00:28.561Z,37.7
2022-12-13T21:03:30.422Z,35.3
2022-12-13T21:06:32.378Z,36.2
2022-12-13T21:09:34.333Z,32
2022-12-13T21:12:36.294Z,38.3
2022-12-13T21:15:38.267Z,30.7
2022-12-13T21:18:40.198Z,32.3
2022-12-13T21:21:42.166Z,34.9
2022-12-13T21:24:44.154Z,37.7
2022-12-13T21:27:46.084Z,34.7
2022-12-13T21:30:48.069Z,35.8
2022-12-13T21:33:50.027Z,31.4
2022-12-13T21:36:52.126Z,30.7
2022-12-13T21:39:53.985Z,37.6
2022-12-13T21:42:55.946Z,29.4
2022-12-13T21:45:57.973Z,31.2
2022-12-13T21:48:59.892Z,27.3
2022-12-13T21:52:01.863Z,27.7
2022-12-13T21:55:30.245Z,24.6
2022-12-13T21:58:07.845Z,27.7
2022-12-13T22:01:08.033Z,31.1
2022-12-13T22:04:09.709Z,25.3
2022-12-13T22:07:11.680Z,26.7
2022-12-13T22:10:13.650Z,28.9
2022-12-13T22:13:15.612Z,28.2
2022-12-13T22:16:17.591Z,29.3
2022-12-13T22:19:19.554Z,27.5
2022-12-13T22:22:21.521Z,24.9
2022-12-13T22:25:23.502Z,27.7
2022-12-13T22:28:25.774Z,23.8
2022-12-13T22:31:29.788Z,24.4
2022-12-13T22:34:29.354Z,27.4
2022-12-13T22:37:31.312Z,27.4
2022-12-13T22:40:33.423Z,24
2022-12-13T22:43:35.237Z,25.1
2022-12-13T22:46:37.201Z,23.9
2022-12-13T22:49:39.165Z,21.2
2022-12-13T22:52:41.117Z,27.6
2022-12-13T22:55:43.090Z,25
2022-12-13T22:58:45.041Z,23.8
2022-12-13T23:01:47.547Z,24.4
2022-12-13T23:04:48.957Z,23.4
2022-12-13T23:07:50.913Z,20.4
2022-12-13T23:10:52.877Z,21.1
2022-12-13T23:13:54.848Z,19.2
2022-12-13T23:16:56.905Z,21.7
2022-12-13T23:19:58.756Z,16.6
2022-12-13T23:23:00.728Z,26
2022-12-13T23:26:02.658Z,24.5
2022-12-13T23:29:04.626Z,19.7
2022-12-13T23:32:06.572Z,27.3
2022-12-13T23:35:08.534Z,25.1
2022-12-13T23:38:10.603Z,20.4
2022-12-13T23:41:12.450Z,26.9
2022-12-13T23:44:14.414Z,28
2022-12-13T23:47:16.362Z,25.8
2022-12-13T23:50:18.332Z,27.3
2022-12-13T23:53:20.295Z,23.9
2022-12-13T23:56:22.249Z,19.8
2022-12-13T23:59:24.210Z,20.7
